Time;durP1;ratioP1;P1;durP2;ratioP2;P2;SDS_P1;SDS_P2;PMS_P1;PMS_P2;Temp;Humidity;BMP_temperature;BMP_pressure;BME280_temperature;BME280_humidity;BME280_pressure;Samples;Min_cycle;Max_cycle;Signal;HPM_P1;HPM_P2
2022/09/23 00:00:36;;;;;;;5.20;3.70;;;;;;;8.89;93.50;101902.94;4993006;28;20038;-73
2022/09/23 00:03:03;;;;;;;6.87;5.17;;;;;;;8.89;94.20;101908.25;4992774;28;20042;-71
2022/09/23 00:05:29;;;;;;;5.17;4.60;;;;;;;8.84;94.09;101905.13;4993104;28;20042;-77
2022/09/23 00:07:56;;;;;;;4.37;3.73;;;;;;;8.83;94.25;101910.56;4992952;28;20045;-74
2022/09/23 00:10:26;;;;;;;4.03;3.60;;;;;;;8.80;94.55;101905.50;4992832;28;20037;-76
2022/09/23 00:12:52;;;;;;;4.47;3.43;;;;;;;8.73;93.64;101897.19;4992922;28;20041;-73
2022/09/23 00:15:18;;;;;;;4.33;3.80;;;;;;;8.81;93.92;101907.19;4992592;28;20030;-71
2022/09/23 00:17:44;;;;;;;5.63;3.83;;;;;;;8.80;93.68;101898.38;4992505;28;20092;-73
2022/09/23 00:20:10;;;;;;;4.20;3.50;;;;;;;8.84;93.52;101904.28;4992632;28;20034;-72
2022/09/23 00:22:37;;;;;;;6.07;4.30;;;;;;;8.79;93.44;101896.69;4992871;28;20042;-72
2022/09/23 00:25:08;;;;;;;4.77;4.23;;;;;;;8.79;93.70;101901.16;4992341;28;20046;-72
2022/09/23 00:27:34;;;;;;;5.03;4.20;;;;;;;8.77;93.47;101893.31;4992636;28;20057;-73
2022/09/23 00:30:00;;;;;;;4.93;3.20;;;;;;;8.79;93.86;101896.69;4992667;28;20482;-73
2022/09/23 00:32:26;;;;;;;4.60;3.43;;;;;;;8.78;93.43;101883.53;4992440;28;20540;-71
2022/09/23 00:34:52;;;;;;;4.27;3.47;;;;;;;8.81;94.37;101893.91;4995156;28;20050;-71
2022/09/23 00:37:18;;;;;;;3.70;3.20;;;;;;;8.81;93.54;101892.09;4996636;28;20169;-71
2022/09/23 00:39:47;;;;;;;4.77;3.77;;;;;;;8.81;93.80;101883.28;4996685;28;20041;-73
2022/09/23 00:42:21;;;;;;;4.97;3.65;;;;;;;8.78;94.12;101883.53;4996748;28;20038;-71
2022/09/23 00:44:51;;;;;;;3.70;3.30;;;;;;;8.80;94.77;101890.41;4996399;28;20379;-73
2022/09/23 00:47:25;;;;;;;5.77;3.70;;;;;;;8.81;94.55;101894.75;4996476;28;20056;-74
2022/09/23 00:50:02;;;;;;;5.70;3.77;;;;;;;8.79;93.80;101886.06;4996476;28;20038;-73
2022/09/23 00:52:31;;;;;;;3.93;3.33;;;;;;;8.73;94.54;101875.94;4996337;28;20030;-73
2022/09/23 00:54:59;;;;;;;3.60;3.00;;;;;;;8.73;94.38;101877.75;4996153;28;20078;-72
2022/09/23 00:57:26;;;;;;;3.97;3.47;;;;;;;8.69;94.41;101870.03;4996149;28;20077;-72
2022/09/23 00:59:52;;;;;;;3.40;3.10;;;;;;;8.71;93.89;101867.25;4996191;28;20070;-72
2022/09/23 01:02:22;;;;;;;3.37;3.07;;;;;;;8.68;94.22;101870.16;4996127;28;20053;-73
2022/09/23 01:04:49;;;;;;;4.23;3.67;;;;;;;8.67;94.12;101874.63;4996137;28;20564;-73
2022/09/23 01:07:15;;;;;;;4.10;3.70;;;;;;;8.59;94.48;101852.28;4996125;28;20041;-72
2022/09/23 01:09:41;;;;;;;3.70;3.27;;;;;;;8.65;95.38;101873.03;5010974;28;20038;-72
2022/09/23 01:12:33;;;;;;;4.70;3.10;;;;;;;8.65;95.79;101865.06;4996142;28;20042;-71
2022/09/23 01:15:04;;;;;;;4.77;3.93;;;;;;;8.63;96.54;101869.66;4996021;28;20506;-74
2022/09/23 01:17:56;;;;;;;6.50;3.40;;;;;;;8.58;95.58;101867.38;4995937;28;20117;-71
2022/09/23 01:20:30;;;;;;;3.87;3.47;;;;;;;8.58;95.30;101871.84;4996177;28;20038;-73
2022/09/23 01:23:07;;;;;;;6.27;3.10;;;;;;;8.55;95.20;101867.63;4995744;28;20125;-72
2022/09/23 01:25:51;;;;;;;5.37;3.47;;;;;;;8.52;95.31;101862.56;4998872;28;20448;-72
2022/09/23 01:28:28;;;;;;;3.77;3.23;;;;;;;8.48;95.37;101866.44;4999649;28;20170;-71
2022/09/23 01:31:13;;;;;;;5.07;3.37;;;;;;;8.45;95.76;101860.53;5001533;28;20034;-72
2022/09/23 01:33:45;;;;;;;3.50;3.20;;;;;;;8.41;96.88;101864.41;4999197;28;20034;-74
2022/09/23 01:36:29;;;;;;;3.70;3.10;;;;;;;8.40;96.59;101854.75;4997244;28;20046;-72
2022/09/23 01:39:02;;;;;;;5.20;3.43;;;;;;;8.38;96.00;101855.72;5003063;28;20046;-73
2022/09/23 01:41:57;;;;;;;4.10;3.40;;;;;;;8.45;96.30;101865.84;5007637;28;20170;-72
2022/09/23 01:44:55;;;;;;;4.50;3.50;;;;;;;8.44;96.57;101862.34;5011102;28;20046;-71
2022/09/23 01:47:26;;;;;;;4.60;3.90;;;;;;;8.41;96.70;101853.78;4992286;28;20134;-73
2022/09/23 01:49:55;;;;;;;4.13;3.50;;;;;;;8.22;97.08;101843.72;5009512;28;20517;-73
2022/09/23 01:52:34;;;;;;;4.10;3.50;;;;;;;8.26;96.67;101846.03;4998441;28;20041;-74
2022/09/23 01:55:16;;;;;;;4.70;3.15;;;;;;;8.41;97.22;101861.75;5005758;28;20042;-73
2022/09/23 01:57:48;;;;;;;4.20;3.40;;;;;;;8.40;97.22;101873.31;4986331;28;20050;-73
2022/09/23 02:00:16;;;;;;;5.13;3.43;;;;;;;8.36;97.43;101867.38;4998763;28;20085;-75
2022/09/23 02:02:50;;;;;;;4.28;2.70;;;;;;;8.36;97.31;101865.56;5003695;28;20129;-73
2022/09/23 02:05:24;;;;;;;3.90;3.13;;;;;;;8.37;97.91;101869.91;5010107;28;20026;-71
2022/09/23 02:08:05;;;;;;;5.67;3.47;;;;;;;8.36;98.78;101862.91;5018742;28;20019;-70
2022/09/23 02:10:36;;;;;;;3.77;3.30;;;;;;;8.38;98.69;101866.34;5014932;28;20038;-74
2022/09/23 02:13:08;;;;;;;3.53;2.90;;;;;;;8.40;98.38;101860.06;4996346;28;20390;-75
2022/09/23 02:15:40;;;;;;;5.27;3.27;;;;;;;8.41;97.95;101861.75;4996431;28;20037;-74
2022/09/23 02:18:14;;;;;;;7.97;4.10;;;;;;;8.42;98.29;101860.78;4994864;28;20030;-76
2022/09/23 02:20:39;;;;;;;6.57;4.90;;;;;;;8.44;98.57;101858.84;4993207;28;20116;-75
2022/09/23 02:23:11;;;;;;;8.17;5.10;;;;;;;8.45;98.24;101873.81;4994425;28;20489;-75
2022/09/23 02:26:02;;;;;;;4.63;3.67;;;;;;;8.43;97.82;101870.44;4995041;28;20042;-73
2022/09/23 02:28:49;;;;;;;3.93;3.23;;;;;;;8.48;97.57;101860.28;4994635;28;20034;-73
2022/09/23 02:35:34;;;;;;;5.07;3.50;;;;;;;8.50;97.03;101864.50;4992200;28;20046;-74
2022/09/23 02:38:44;;;;;;;5.67;3.40;;;;;;;8.49;96.72;101854.84;4994570;28;20049;-74
2022/09/23 02:41:40;;;;;;;4.63;3.60;;;;;;;8.40;96.46;101854.75;4994281;28;20053;-75
2022/09/23 02:44:13;;;;;;;5.43;4.27;;;;;;;8.19;96.94;101818.28;4989643;28;20097;-72
2022/09/23 02:46:42;;;;;;;6.23;3.77;;;;;;;8.21;97.35;101826.97;4994609;28;20037;-72
2022/09/23 02:49:10;;;;;;;3.67;3.33;;;;;;;8.39;96.80;101859.22;4994204;28;20136;-73
2022/09/23 02:51:37;;;;;;;4.43;3.33;;;;;;;8.37;97.08;101854.00;4994532;28;20125;-74
2022/09/23 02:54:06;;;;;;;4.40;3.57;;;;;;;8.31;96.35;101843.84;4994144;28;20412;-73
2022/09/23 02:56:31;;;;;;;;;;;;;;;8.45;96.47;101861.38;4994717;28;20031;-72
2022/09/23 02:58:57;;;;;;;4.70;3.63;;;;;;;8.38;96.25;101852.19;4993126;28;20379;-75
2022/09/23 03:01:32;;;;;;;4.27;2.83;;;;;;;8.44;96.97;101858.84;4994152;28;20038;-73
2022/09/23 03:04:19;;;;;;;3.97;3.47;;;;;;;8.42;96.50;101855.47;4994080;28;20042;-72
2022/09/23 03:07:08;;;;;;;5.47;3.70;;;;;;;8.45;96.78;101865.84;4994588;28;20038;-73
2022/09/23 03:10:03;;;;;;;4.10;3.70;;;;;;;8.45;96.49;101865.84;4994082;28;20038;-73
2022/09/23 03:12:40;;;;;;;4.10;3.67;;;;;;;8.41;97.04;101853.78;4993456;28;20043;-74
2022/09/23 03:15:52;;;;;;;6.17;4.10;;;;;;;8.47;96.85;101855.94;4993847;28;20042;-74
2022/09/23 03:18:21;;;;;;;4.73;3.30;;;;;;;8.47;96.76;101858.59;4952659;29;20121;-71
2022/09/23 03:21:15;;;;;;;5.30;3.88;;;;;;;8.46;96.20;101854.25;4988808;28;20056;-73
2022/09/23 03:23:44;;;;;;;7.87;3.77;;;;;;;8.41;96.76;101843.16;4989738;28;20189;-72
2022/09/23 03:26:21;;;;;;;4.85;3.78;;;;;;;8.37;96.50;101854.00;4993529;28;20057;-74
2022/09/23 03:28:49;;;;;;;4.97;4.27;;;;;;;8.36;96.57;101862.91;4993484;28;20061;-74
2022/09/23 03:31:16;;;;;;;6.93;4.20;;;;;;;8.36;97.27;101852.31;4993377;28;20413;-73
2022/09/23 03:33:47;;;;;;;5.13;4.20;;;;;;;8.36;97.01;101846.16;4993551;28;20064;-73
2022/09/23 03:39:07;;;;;;;4.20;3.80;;;;;;;8.40;96.95;101844.13;4993317;28;20041;-72
2022/09/23 03:41:39;;;;;;;4.20;3.77;;;;;;;8.38;96.93;101845.09;4992085;28;20553;-72
2022/09/23 03:44:07;;;;;;;4.53;3.60;;;;;;;8.39;97.34;101843.28;4993216;28;20478;-72
2022/09/23 03:46:34;;;;;;;5.03;3.78;;;;;;;8.37;97.06;101846.03;4993228;28;20070;-74
2022/09/23 03:49:09;;;;;;;6.13;5.17;;;;;;;8.38;97.09;101845.09;4993555;28;20051;-75
2022/09/23 03:51:35;;;;;;;5.17;4.03;;;;;;;8.38;98.12;101845.09;4993209;28;20042;-69
2022/09/23 03:54:00;;;;;;;6.13;3.80;;;;;;;8.37;97.60;101838.06;4992992;28;20045;-73
2022/09/23 03:56:26;;;;;;;5.27;4.30;;;;;;;8.42;98.11;101855.47;4992967;28;20410;-73
2022/09/23 03:58:52;;;;;;;4.20;3.70;;;;;;;8.41;97.47;101848.47;4992950;28;20489;-72
2022/09/23 04:01:17;;;;;;;4.17;3.53;;;;;;;8.41;97.84;101838.69;4992774;28;20031;-70
2022/09/23 04:03:43;;;;;;;3.97;3.33;;;;;;;8.43;96.93;101841.22;4993097;28;20038;-74
2022/09/23 04:06:08;;;;;;;4.13;3.33;;;;;;;8.46;97.11;101849.78;4992840;28;20057;-72
2022/09/23 04:08:34;;;;;;;7.17;3.97;;;;;;;8.47;96.70;101850.63;4992884;28;20032;-74
2022/09/23 04:11:03;;;;;;;3.90;3.40;;;;;;;8.46;97.59;101833.84;4992952;28;20097;-73
2022/09/23 04:13:41;;;;;;;3.63;3.03;;;;;;;8.50;96.66;101847.72;4991861;28;20042;-73
2022/09/23 04:16:11;;;;;;;4.57;3.80;;;;;;;8.43;96.66;101820.00;4992493;28;20038;-75
2022/09/23 04:18:37;;;;;;;4.27;3.87;;;;;;;8.57;96.59;101843.59;4992701;28;20046;-73
2022/09/23 04:21:03;;;;;;;5.20;4.70;;;;;;;8.59;96.16;101846.97;4992696;28;20046;-73
2022/09/23 04:23:29;;;;;;;3.93;3.37;;;;;;;8.61;96.43;101853.00;4992464;28;20062;-71
2022/09/23 04:25:54;;;;;;;7.63;4.40;;;;;;;8.56;96.31;101839.25;4992695;28;20042;-73
2022/09/23 04:28:21;;;;;;;4.60;3.90;;;;;;;8.65;96.67;101846.47;4992825;28;20127;-74
2022/09/23 04:30:47;;;;;;;6.33;3.53;;;;;;;8.69;96.39;101847.94;4992868;28;20517;-74
2022/09/23 04:33:14;;;;;;;4.00;3.17;;;;;;;8.74;96.42;101848.41;4992876;28;20044;-77
2022/09/23 04:35:42;;;;;;;6.53;4.00;;;;;;;8.78;96.40;101847.19;4992519;28;20049;-74
2022/09/23 04:38:10;;;;;;;4.15;3.13;;;;;;;8.81;95.88;101841.63;4992588;28;20038;-73
2022/09/23 04:40:36;;;;;;;4.57;3.63;;;;;;;8.84;95.77;101838.72;4993423;28;20052;-73
2022/09/23 04:43:02;;;;;;;7.13;3.50;;;;;;;8.82;95.95;101831.84;4994751;28;20517;-74
2022/09/23 04:45:28;;;;;;;6.53;3.90;;;;;;;8.85;96.24;101837.75;4994098;28;20398;-73
2022/09/23 04:47:54;;;;;;;3.57;3.23;;;;;;;8.81;96.23;101831.00;4991359;28;20035;-73
2022/09/23 04:50:20;;;;;;;4.87;3.53;;;;;;;8.88;95.72;101832.19;4992448;28;20042;-73
2022/09/23 04:52:46;;;;;;;7.93;3.43;;;;;;;8.90;95.72;101835.56;4992211;28;20053;-73
2022/09/23 04:55:11;;;;;;;6.90;3.67;;;;;;;8.92;95.90;101849.56;4992753;28;20026;-74
2022/09/23 04:57:37;;;;;;;3.90;3.50;;;;;;;8.93;95.66;101835.28;4992785;28;20034;-74
2022/09/23 05:00:03;;;;;;;10.63;3.93;;;;;;;8.93;95.67;101845.09;4992480;28;20077;-74
2022/09/23 05:02:29;;;;;;;4.43;3.37;;;;;;;8.73;95.66;101812.19;4992561;28;20037;-73
2022/09/23 05:04:55;;;;;;;4.23;3.30;;;;;;;9.02;95.08;101843.50;4992197;28;20126;-72
2022/09/23 05:07:59;;;;;;;4.30;3.87;;;;;;;9.17;95.21;101842.22;4991193;28;20030;-75
2022/09/23 05:10:24;;;;;;;4.97;3.30;;;;;;;9.23;94.24;101841.72;4994890;28;20122;-75
2022/09/23 05:12:50;;;;;;;5.13;3.60;;;;;;;9.34;94.17;101836.38;5002422;28;20133;-75
2022/09/23 05:15:15;;;;;;;5.10;3.40;;;;;;;9.35;93.52;101830.06;5003259;28;20034;-75
2022/09/23 05:17:42;;;;;;;5.70;4.97;;;;;;;9.40;93.68;101838.50;5016846;28;20030;-76
2022/09/23 05:20:09;;;;;;;5.93;3.97;;;;;;;9.35;93.42;101840.72;5002018;28;20030;-75
2022/09/23 05:22:34;;;;;;;6.83;3.33;;;;;;;9.42;93.47;101844.53;5000926;28;20118;-74
2022/09/23 05:25:01;;;;;;;5.13;3.53;;;;;;;9.49;93.46;101847.50;5006981;28;20564;-76
2022/09/23 05:27:27;;;;;;;4.10;3.70;;;;;;;9.55;92.91;101845.19;4987332;28;20041;-73
2022/09/23 05:29:53;;;;;;;9.30;3.60;;;;;;;9.58;93.10;101847.59;5003636;28;20030;-71
2022/09/23 05:32:22;;;;;;;6.53;3.47;;;;;;;9.65;92.12;101845.25;5020518;28;20038;-72
2022/09/23 05:34:47;;;;;;;6.20;3.33;;;;;;;9.73;92.51;101850.75;4996592;28;20034;-74
2022/09/23 05:37:13;;;;;;;4.77;3.63;;;;;;;9.84;91.98;101848.03;5005973;28;20508;-72
2022/09/23 05:39:41;;;;;;;5.67;3.77;;;;;;;9.98;91.53;101848.66;5004031;28;20034;-73
2022/09/23 05:42:07;;;;;;;4.80;3.65;;;;;;;10.04;90.77;101848.97;5007106;28;20112;-72
2022/09/23 05:44:38;;;;;;;6.75;3.92;;;;;;;10.08;90.92;101850.38;4999769;28;20030;-73
2022/09/23 05:47:06;;;;;;;7.07;4.13;;;;;;;10.10;90.31;101845.78;5004568;28;20034;-72
2022/09/23 05:49:32;;;;;;;6.97;4.03;;;;;;;10.18;90.47;101850.44;5003753;28;20037;-72
2022/09/23 05:51:58;;;;;;;6.10;4.23;;;;;;;10.04;89.96;101833.00;4980065;28;20038;-72
2022/09/23 05:54:24;;;;;;;5.53;4.90;;;;;;;10.16;90.80;101855.91;4977133;28;20046;-73
2022/09/23 05:56:56;;;;;;;7.17;4.00;;;;;;;10.14;90.99;101852.53;4977190;28;20046;-73
2022/09/23 05:59:25;;;;;;;4.20;3.80;;;;;;;10.26;90.50;101857.78;4993073;28;20092;-74
2022/09/23 06:01:54;;;;;;;8.20;3.70;;;;;;;10.34;90.47;101858.81;4976859;28;20442;-73
2022/09/23 06:04:22;;;;;;;5.13;3.53;;;;;;;10.34;89.98;101849.97;4994910;28;20501;-73
2022/09/23 06:06:48;;;;;;;5.43;3.80;;;;;;;10.42;90.16;101866.16;4994790;28;20037;-72
2022/09/23 06:09:13;;;;;;;4.33;3.93;;;;;;;10.48;90.47;101857.59;4993727;28;20401;-73
2022/09/23 06:11:40;;;;;;;8.27;4.23;;;;;;;10.58;90.02;101853.13;5008064;28;20034;-74
2022/09/23 06:14:08;;;;;;;5.93;3.30;;;;;;;10.80;89.38;101858.25;5009727;28;20481;-71
2022/09/23 06:16:34;;;;;;;4.82;3.63;;;;;;;10.96;88.45;101862.19;5014640;28;20038;-72
2022/09/23 06:19:06;;;;;;;7.23;3.27;;;;;;;11.03;87.79;101866.00;5014229;28;20398;-74
2022/09/23 06:21:35;;;;;;;5.57;3.17;;;;;;;11.06;87.70;101863.06;5014506;28;20527;-72
2022/09/23 06:24:01;;;;;;;3.00;2.38;;;;;;;11.11;86.85;101855.47;5014627;28;20085;-72
2022/09/23 06:26:33;;;;;;;4.80;2.53;;;;;;;11.10;87.02;101853.81;5010317;28;20132;-74
2022/09/23 06:29:05;;;;;;;7.97;3.03;;;;;;;11.08;86.73;101856.59;4999001;28;20088;-72
2022/09/23 06:32:05;;;;;;;3.67;2.53;;;;;;;11.09;87.05;101858.28;5014433;28;20037;-77
2022/09/23 06:34:33;;;;;;;2.80;2.50;;;;;;;10.94;87.73;101865.00;4994141;28;20595;-74
2022/09/23 06:37:04;;;;;;;4.45;2.75;;;;;;;10.98;87.92;101870.88;4993889;28;20064;-74
2022/09/23 06:39:32;;;;;;;6.17;3.27;;;;;;;10.94;88.20;101854.34;4983784;28;20049;-76
2022/09/23 06:42:14;;;;;;;2.50;2.30;;;;;;;10.91;88.36;101851.09;5002809;28;20082;-74
2022/09/23 06:45:13;;;;;;;3.57;2.63;;;;;;;10.72;88.79;101826.13;4982499;28;20049;-76
2022/09/23 06:47:41;;;;;;;2.97;2.60;;;;;;;10.89;89.26;101861.91;5000245;28;20034;-74
2022/09/23 06:50:07;;;;;;;2.73;2.20;;;;;;;10.83;88.92;101841.97;5005615;28;20391;-72
2022/09/23 06:52:33;;;;;;;2.30;2.10;;;;;;;11.06;89.25;101847.06;5001412;28;20405;-72
2022/09/23 06:55:26;;;;;;;3.60;2.87;;;;;;;11.15;88.53;101857.72;5002369;28;20060;-72
2022/09/23 06:57:52;;;;;;;3.50;2.60;;;;;;;11.16;88.74;101856.75;5004447;28;20080;-71
2022/09/23 07:00:19;;;;;;;7.80;2.80;;;;;;;11.17;89.29;101855.75;5002096;28;20459;-75
2022/09/23 07:02:45;;;;;;;4.27;2.73;;;;;;;11.11;89.01;101845.66;5002280;28;20093;-72
2022/09/23 07:05:10;;;;;;;2.57;2.33;;;;;;;11.17;88.42;101849.59;4999150;28;20437;-72
2022/09/23 07:07:37;;;;;;;6.23;2.90;;;;;;;11.26;88.78;101854.06;4994283;28;20121;-72
2022/09/23 07:10:05;;;;;;;3.60;2.17;;;;;;;11.37;88.11;101851.28;4993731;28;20030;-73
2022/09/23 07:12:31;;;;;;;3.17;2.80;;;;;;;11.52;88.44;101864.16;4994118;28;20042;-74
2022/09/23 07:14:56;;;;;;;3.63;2.47;;;;;;;11.56;87.72;101854.88;5012655;28;20409;-73
2022/09/23 07:17:25;;;;;;;2.10;1.87;;;;;;;11.44;86.98;101844.38;5000333;28;20107;-74
2022/09/23 07:19:51;;;;;;;;;;;;;;;11.53;87.08;101855.19;4994057;28;20045;-72
2022/09/23 07:22:20;;;;;;;3.33;3.03;;;;;;;11.39;87.54;101854.66;4993642;28;19972;-73
2022/09/23 07:24:51;;;;;;;5.23;2.23;;;;;;;11.33;88.17;101854.38;4993201;28;20055;-71
2022/09/23 07:27:18;;;;;;;6.73;2.37;;;;;;;11.33;88.46;101857.88;4993582;28;20079;-72
2022/09/23 07:29:49;;;;;;;3.50;3.10;;;;;;;11.14;88.17;101839.19;4993891;28;20085;-72
2022/09/23 07:32:15;;;;;;;2.70;2.50;;;;;;;11.25;88.57;101860.38;5007506;28;20076;-71
2022/09/23 07:34:42;;;;;;;4.67;2.50;;;;;;;11.28;88.57;101857.47;5000051;28;20121;-72
2022/09/23 07:37:08;;;;;;;2.23;1.97;;;;;;;11.39;87.28;101859.97;4993254;28;20026;-73
2022/09/23 07:39:35;;;;;;;3.00;2.20;;;;;;;11.41;87.62;101862.50;5007625;28;20042;-73
2022/09/23 07:42:02;;;;;;;1.70;1.50;;;;;;;11.30;86.57;101834.16;5012831;28;20042;-73
2022/09/23 07:44:30;;;;;;;2.93;2.40;;;;;;;11.47;86.75;101861.94;5012814;28;20041;-72
2022/09/23 07:46:55;;;;;;;4.30;2.35;;;;;;;11.39;85.13;101859.13;5012831;28;20033;-73
2022/09/23 07:49:21;;;;;;;4.37;2.17;;;;;;;11.29;85.91;101852.97;5011699;28;20033;-76
2022/09/23 07:51:47;;;;;;;2.77;2.47;;;;;;;11.18;86.37;101851.28;5027841;28;20033;-73
2022/09/23 07:54:15;;;;;;;2.93;1.90;;;;;;;11.09;85.61;101854.78;5012645;28;20079;-72
